sensor_id;sensor_type;location;lat;lon;timestamp;P1;durP1;ratioP1;P2;durP2;ratioP2
66680;SDS011;53575;51.366;12.350;2022-11-20T00:00:57;28.17;;;14.40;;
66680;SDS011;53575;51.366;12.350;2022-11-20T00:03:22;28.35;;;14.40;;
66680;SDS011;53575;51.366;12.350;2022-11-20T00:05:48;27.35;;;13.88;;
66680;SDS011;53575;51.366;12.350;2022-11-20T00:08:13;24.63;;;13.52;;
66680;SDS011;53575;51.366;12.350;2022-11-20T00:10:39;26.27;;;13.50;;
66680;SDS011;53575;51.366;12.350;2022-11-20T00:13:05;27.27;;;14.73;;
66680;SDS011;53575;51.366;12.350;2022-11-20T00:15:32;26.55;;;13.95;;
66680;SDS011;53575;51.366;12.350;2022-11-20T00:17:57;23.15;;;13.07;;
66680;SDS011;53575;51.366;12.350;2022-11-20T00:20:22;24.60;;;12.90;;
66680;SDS011;53575;51.366;12.350;2022-11-20T00:22:49;29.27;;;14.88;;
66680;SDS011;53575;51.366;12.350;2022-11-20T00:25:14;26.63;;;14.27;;
66680;SDS011;53575;51.366;12.350;2022-11-20T00:27:40;24.38;;;13.20;;
66680;SDS011;53575;51.366;12.350;2022-11-20T00:30:06;26.13;;;14.00;;
66680;SDS011;53575;51.366;12.350;2022-11-20T00:32:32;29.17;;;14.43;;
66680;SDS011;53575;51.366;12.350;2022-11-20T00:34:57;24.15;;;13.43;;
66680;SDS011;53575;51.366;12.350;2022-11-20T00:37:23;22.40;;;13.30;;
66680;SDS011;53575;51.366;12.350;2022-11-20T00:39:48;27.00;;;13.25;;
66680;SDS011;53575;51.366;12.350;2022-11-20T00:42:13;26.20;;;13.63;;
66680;SDS011;53575;51.366;12.350;2022-11-20T00:44:39;26.83;;;13.50;;
66680;SDS011;53575;51.366;12.350;2022-11-20T00:47:04;28.10;;;13.48;;
66680;SDS011;53575;51.366;12.350;2022-11-20T00:49:30;31.90;;;15.63;;
66680;SDS011;53575;51.366;12.350;2022-11-20T00:51:55;25.90;;;13.77;;
66680;SDS011;53575;51.366;12.350;2022-11-20T00:54:20;29.80;;;14.90;;
66680;SDS011;53575;51.366;12.350;2022-11-20T00:56:46;25.10;;;13.20;;
66680;SDS011;53575;51.366;12.350;2022-11-20T00:59:11;26.63;;;13.68;;
66680;SDS011;53575;51.366;12.350;2022-11-20T01:01:37;27.95;;;13.13;;
66680;SDS011;53575;51.366;12.350;2022-11-20T01:04:03;26.30;;;13.73;;
66680;SDS011;53575;51.366;12.350;2022-11-20T01:06:32;27.25;;;12.93;;
66680;SDS011;53575;51.366;12.350;2022-11-20T01:09:00;27.48;;;13.77;;
66680;SDS011;53575;51.366;12.350;2022-11-20T01:11:29;29.40;;;14.82;;
66680;SDS011;53575;51.366;12.350;2022-11-20T01:13:57;29.77;;;14.68;;
66680;SDS011;53575;51.366;12.350;2022-11-20T01:16:24;21.35;;;12.13;;
66680;SDS011;53575;51.366;12.350;2022-11-20T01:18:53;24.20;;;12.93;;
66680;SDS011;53575;51.366;12.350;2022-11-20T01:21:21;24.27;;;13.98;;
66680;SDS011;53575;51.366;12.350;2022-11-20T01:23:51;24.95;;;14.05;;
66680;SDS011;53575;51.366;12.350;2022-11-20T01:26:18;29.05;;;13.90;;
66680;SDS011;53575;51.366;12.350;2022-11-20T01:28:46;25.92;;;13.75;;
66680;SDS011;53575;51.366;12.350;2022-11-20T01:31:16;26.38;;;13.48;;
66680;SDS011;53575;51.366;12.350;2022-11-20T01:33:43;24.42;;;13.05;;
66680;SDS011;53575;51.366;12.350;2022-11-20T01:36:11;22.33;;;11.90;;
66680;SDS011;53575;51.366;12.350;2022-11-20T01:38:38;25.02;;;13.40;;
66680;SDS011;53575;51.366;12.350;2022-11-20T01:41:03;29.00;;;13.93;;
66680;SDS011;53575;51.366;12.350;2022-11-20T01:43:30;30.60;;;14.88;;
66680;SDS011;53575;51.366;12.350;2022-11-20T01:45:57;24.25;;;13.10;;
66680;SDS011;53575;51.366;12.350;2022-11-20T01:48:23;27.08;;;13.60;;
66680;SDS011;53575;51.366;12.350;2022-11-20T01:50:53;27.33;;;14.25;;
66680;SDS011;53575;51.366;12.350;2022-11-20T01:53:21;29.38;;;14.02;;
66680;SDS011;53575;51.366;12.350;2022-11-20T01:55:53;29.50;;;13.88;;
66680;SDS011;53575;51.366;12.350;2022-11-20T01:58:26;27.13;;;14.32;;
66680;SDS011;53575;51.366;12.350;2022-11-20T02:00:55;27.40;;;13.98;;
66680;SDS011;53575;51.366;12.350;2022-11-20T02:03:20;26.15;;;15.20;;
66680;SDS011;53575;51.366;12.350;2022-11-20T02:05:47;27.80;;;14.32;;
66680;SDS011;53575;51.366;12.350;2022-11-20T02:08:33;28.33;;;14.77;;
66680;SDS011;53575;51.366;12.350;2022-11-20T02:10:59;27.92;;;14.10;;
66680;SDS011;53575;51.366;12.350;2022-11-20T02:13:24;27.58;;;14.57;;
66680;SDS011;53575;51.366;12.350;2022-11-20T02:16:08;28.52;;;14.65;;
66680;SDS011;53575;51.366;12.350;2022-11-20T02:18:40;30.42;;;15.05;;
66680;SDS011;53575;51.366;12.350;2022-11-20T02:21:07;27.85;;;15.10;;
66680;SDS011;53575;51.366;12.350;2022-11-20T02:23:41;26.05;;;12.70;;
66680;SDS011;53575;51.366;12.350;2022-11-20T02:26:20;28.55;;;14.05;;
66680;SDS011;53575;51.366;12.350;2022-11-20T02:28:48;23.83;;;12.85;;
66680;SDS011;53575;51.366;12.350;2022-11-20T02:31:13;28.38;;;14.63;;
66680;SDS011;53575;51.366;12.350;2022-11-20T02:33:39;24.65;;;12.32;;
66680;SDS011;53575;51.366;12.350;2022-11-20T02:36:04;23.95;;;12.88;;
66680;SDS011;53575;51.366;12.350;2022-11-20T02:38:30;29.23;;;13.95;;
66680;SDS011;53575;51.366;12.350;2022-11-20T02:40:56;27.02;;;13.90;;
66680;SDS011;53575;51.366;12.350;2022-11-20T02:43:22;23.88;;;12.80;;
66680;SDS011;53575;51.366;12.350;2022-11-20T02:45:48;26.67;;;13.85;;
66680;SDS011;53575;51.366;12.350;2022-11-20T02:48:13;27.42;;;14.75;;
66680;SDS011;53575;51.366;12.350;2022-11-20T02:50:39;25.05;;;12.93;;
66680;SDS011;53575;51.366;12.350;2022-11-20T02:53:04;23.38;;;12.82;;
66680;SDS011;53575;51.366;12.350;2022-11-20T02:55:30;25.95;;;14.05;;
66680;SDS011;53575;51.366;12.350;2022-11-20T02:57:56;26.52;;;13.32;;
66680;SDS011;53575;51.366;12.350;2022-11-20T03:00:21;25.33;;;13.10;;
66680;SDS011;53575;51.366;12.350;2022-11-20T03:02:46;28.80;;;14.45;;
66680;SDS011;53575;51.366;12.350;2022-11-20T03:05:12;31.10;;;14.13;;
66680;SDS011;53575;51.366;12.350;2022-11-20T03:07:37;28.65;;;14.38;;
66680;SDS011;53575;51.366;12.350;2022-11-20T03:10:03;27.98;;;15.20;;
66680;SDS011;53575;51.366;12.350;2022-11-20T03:12:29;28.10;;;14.52;;
66680;SDS011;53575;51.366;12.350;2022-11-20T03:14:54;30.88;;;14.85;;
66680;SDS011;53575;51.366;12.350;2022-11-20T03:17:20;26.58;;;12.80;;
66680;SDS011;53575;51.366;12.350;2022-11-20T03:19:45;28.60;;;14.05;;
66680;SDS011;53575;51.366;12.350;2022-11-20T03:22:11;24.38;;;13.80;;
66680;SDS011;53575;51.366;12.350;2022-11-20T03:24:36;26.63;;;13.70;;
66680;SDS011;53575;51.366;12.350;2022-11-20T03:27:02;29.63;;;13.50;;
66680;SDS011;53575;51.366;12.350;2022-11-20T03:29:27;28.35;;;14.50;;
66680;SDS011;53575;51.366;12.350;2022-11-20T03:31:52;30.92;;;14.73;;
66680;SDS011;53575;51.366;12.350;2022-11-20T03:34:18;31.90;;;15.10;;
66680;SDS011;53575;51.366;12.350;2022-11-20T03:36:43;24.30;;;12.77;;
66680;SDS011;53575;51.366;12.350;2022-11-20T03:39:09;27.17;;;12.93;;
66680;SDS011;53575;51.366;12.350;2022-11-20T03:41:36;30.63;;;14.45;;
66680;SDS011;53575;51.366;12.350;2022-11-20T03:44:03;33.60;;;16.20;;
66680;SDS011;53575;51.366;12.350;2022-11-20T03:46:31;31.45;;;14.95;;
66680;SDS011;53575;51.366;12.350;2022-11-20T03:48:57;29.60;;;15.48;;
66680;SDS011;53575;51.366;12.350;2022-11-20T03:51:24;25.80;;;13.68;;
66680;SDS011;53575;51.366;12.350;2022-11-20T03:53:52;26.05;;;13.30;;
66680;SDS011;53575;51.366;12.350;2022-11-20T03:56:20;29.83;;;15.40;;
66680;SDS011;53575;51.366;12.350;2022-11-20T03:58:48;30.25;;;15.23;;
66680;SDS011;53575;51.366;12.350;2022-11-20T04:01:18;31.48;;;16.00;;
66680;SDS011;53575;51.366;12.350;2022-11-20T04:03:46;30.88;;;15.27;;
66680;SDS011;53575;51.366;12.350;2022-11-20T04:06:13;34.42;;;16.02;;
66680;SDS011;53575;51.366;12.350;2022-11-20T04:08:42;29.15;;;14.70;;
66680;SDS011;53575;51.366;12.350;2022-11-20T04:13:51;31.92;;;16.08;;
66680;SDS011;53575;51.366;12.350;2022-11-20T04:16:19;32.22;;;16.30;;
66680;SDS011;53575;51.366;12.350;2022-11-20T04:18:45;29.40;;;15.15;;
66680;SDS011;53575;51.366;12.350;2022-11-20T04:21:11;28.60;;;14.23;;
66680;SDS011;53575;51.366;12.350;2022-11-20T04:23:37;34.60;;;16.35;;
66680;SDS011;53575;51.366;12.350;2022-11-20T04:26:07;32.80;;;15.43;;
66680;SDS011;53575;51.366;12.350;2022-11-20T04:28:34;32.47;;;16.27;;
66680;SDS011;53575;51.366;12.350;2022-11-20T04:31:08;32.30;;;14.65;;
66680;SDS011;53575;51.366;12.350;2022-11-20T04:33:40;31.30;;;15.75;;
66680;SDS011;53575;51.366;12.350;2022-11-20T04:36:07;33.20;;;16.05;;
66680;SDS011;53575;51.366;12.350;2022-11-20T04:38:37;36.30;;;15.25;;
66680;SDS011;53575;51.366;12.350;2022-11-20T04:41:04;34.55;;;14.45;;
66680;SDS011;53575;51.366;12.350;2022-11-20T04:43:31;35.35;;;15.55;;
66680;SDS011;53575;51.366;12.350;2022-11-20T04:45:57;33.10;;;15.45;;
66680;SDS011;53575;51.366;12.350;2022-11-20T04:48:24;33.53;;;16.35;;
66680;SDS011;53575;51.366;12.350;2022-11-20T04:50:54;32.00;;;15.80;;
66680;SDS011;53575;51.366;12.350;2022-11-20T04:53:20;31.33;;;16.40;;
66680;SDS011;53575;51.366;12.350;2022-11-20T04:55:47;37.65;;;18.67;;
66680;SDS011;53575;51.366;12.350;2022-11-20T04:58:13;33.55;;;15.55;;
66680;SDS011;53575;51.366;12.350;2022-11-20T05:00:38;36.58;;;16.38;;
66680;SDS011;53575;51.366;12.350;2022-11-20T05:03:04;31.92;;;15.90;;
66680;SDS011;53575;51.366;12.350;2022-11-20T05:05:30;36.35;;;16.63;;
66680;SDS011;53575;51.366;12.350;2022-11-20T05:07:56;33.40;;;16.40;;
66680;SDS011;53575;51.366;12.350;2022-11-20T05:10:22;32.20;;;16.00;;
66680;SDS011;53575;51.366;12.350;2022-11-20T05:12:48;35.10;;;16.45;;
66680;SDS011;53575;51.366;12.350;2022-11-20T05:15:14;32.97;;;17.27;;
66680;SDS011;53575;51.366;12.350;2022-11-20T05:17:40;35.45;;;17.67;;
66680;SDS011;53575;51.366;12.350;2022-11-20T05:20:05;38.50;;;18.35;;
66680;SDS011;53575;51.366;12.350;2022-11-20T05:22:31;37.60;;;17.30;;
66680;SDS011;53575;51.366;12.350;2022-11-20T05:24:57;32.58;;;17.13;;
66680;SDS011;53575;51.366;12.350;2022-11-20T05:27:22;34.38;;;17.48;;
66680;SDS011;53575;51.366;12.350;2022-11-20T05:29:48;34.35;;;16.77;;
66680;SDS011;53575;51.366;12.350;2022-11-20T05:32:13;32.65;;;15.95;;
66680;SDS011;53575;51.366;12.350;2022-11-20T05:34:39;43.58;;;18.70;;
66680;SDS011;53575;51.366;12.350;2022-11-20T05:37:04;36.28;;;17.58;;
66680;SDS011;53575;51.366;12.350;2022-11-20T05:39:30;37.20;;;18.60;;
66680;SDS011;53575;51.366;12.350;2022-11-20T05:41:55;36.45;;;17.70;;
66680;SDS011;53575;51.366;12.350;2022-11-20T05:44:39;36.72;;;17.52;;
66680;SDS011;53575;51.366;12.350;2022-11-20T05:47:05;34.25;;;16.65;;
66680;SDS011;53575;51.366;12.350;2022-11-20T05:49:30;33.03;;;17.10;;
66680;SDS011;53575;51.366;12.350;2022-11-20T05:51:56;35.05;;;17.13;;
66680;SDS011;53575;51.366;12.350;2022-11-20T05:54:21;34.67;;;16.35;;
66680;SDS011;53575;51.366;12.350;2022-11-20T05:56:47;33.60;;;17.00;;
66680;SDS011;53575;51.366;12.350;2022-11-20T05:59:12;37.85;;;17.17;;
66680;SDS011;53575;51.366;12.350;2022-11-20T06:01:37;38.67;;;16.95;;
66680;SDS011;53575;51.366;12.350;2022-11-20T06:04:03;34.85;;;16.00;;
66680;SDS011;53575;51.366;12.350;2022-11-20T06:06:28;35.17;;;17.15;;
66680;SDS011;53575;51.366;12.350;2022-11-20T06:08:54;35.83;;;16.65;;
66680;SDS011;53575;51.366;12.350;2022-11-20T06:11:20;37.40;;;17.00;;
66680;SDS011;53575;51.366;12.350;2022-11-20T06:13:46;37.10;;;17.65;;
66680;SDS011;53575;51.366;12.350;2022-11-20T06:16:13;34.03;;;15.13;;
66680;SDS011;53575;51.366;12.350;2022-11-20T06:18:40;40.70;;;17.07;;
66680;SDS011;53575;51.366;12.350;2022-11-20T06:21:07;46.63;;;18.05;;
66680;SDS011;53575;51.366;12.350;2022-11-20T06:23:34;36.22;;;17.65;;
66680;SDS011;53575;51.366;12.350;2022-11-20T06:26:04;37.45;;;17.52;;
66680;SDS011;53575;51.366;12.350;2022-11-20T06:28:34;38.40;;;16.08;;
66680;SDS011;53575;51.366;12.350;2022-11-20T06:31:00;34.47;;;16.83;;
66680;SDS011;53575;51.366;12.350;2022-11-20T06:33:26;33.20;;;16.48;;
66680;SDS011;53575;51.366;12.350;2022-11-20T06:35:52;44.33;;;18.20;;
66680;SDS011;53575;51.366;12.350;2022-11-20T06:38:20;37.67;;;17.40;;
66680;SDS011;53575;51.366;12.350;2022-11-20T06:40:46;38.97;;;17.77;;
66680;SDS011;53575;51.366;12.350;2022-11-20T06:43:11;35.78;;;17.33;;
66680;SDS011;53575;51.366;12.350;2022-11-20T06:45:37;36.72;;;17.92;;
66680;SDS011;53575;51.366;12.350;2022-11-20T06:48:02;35.03;;;16.95;;
66680;SDS011;53575;51.366;12.350;2022-11-20T06:50:28;35.15;;;17.23;;
66680;SDS011;53575;51.366;12.350;2022-11-20T06:52:53;33.97;;;16.88;;
66680;SDS011;53575;51.366;12.350;2022-11-20T06:55:19;37.15;;;16.48;;
66680;SDS011;53575;51.366;12.350;2022-11-20T06:57:45;33.85;;;16.63;;
66680;SDS011;53575;51.366;12.350;2022-11-20T07:00:10;41.45;;;17.52;;
66680;SDS011;53575;51.366;12.350;2022-11-20T07:02:36;37.15;;;17.42;;
66680;SDS011;53575;51.366;12.350;2022-11-20T07:05:02;33.10;;;16.33;;
66680;SDS011;53575;51.366;12.350;2022-11-20T07:07:27;38.45;;;17.45;;
66680;SDS011;53575;51.366;12.350;2022-11-20T07:09:53;36.42;;;17.80;;
66680;SDS011;53575;51.366;12.350;2022-11-20T07:12:18;37.67;;;17.15;;
66680;SDS011;53575;51.366;12.350;2022-11-20T07:14:44;37.45;;;18.38;;
66680;SDS011;53575;51.366;12.350;2022-11-20T07:17:09;32.08;;;16.33;;
66680;SDS011;53575;51.366;12.350;2022-11-20T07:19:34;34.88;;;17.25;;
66680;SDS011;53575;51.366;12.350;2022-11-20T07:22:00;37.65;;;17.45;;
66680;SDS011;53575;51.366;12.350;2022-11-20T07:24:25;38.90;;;18.40;;
66680;SDS011;53575;51.366;12.350;2022-11-20T07:26:51;32.75;;;17.17;;
66680;SDS011;53575;51.366;12.350;2022-11-20T07:29:16;34.88;;;16.20;;
66680;SDS011;53575;51.366;12.350;2022-11-20T07:31:41;32.63;;;14.73;;
66680;SDS011;53575;51.366;12.350;2022-11-20T07:34:07;39.78;;;18.25;;
66680;SDS011;53575;51.366;12.350;2022-11-20T07:36:33;33.50;;;15.50;;
66680;SDS011;53575;51.366;12.350;2022-11-20T07:38:59;36.20;;;15.52;;
66680;SDS011;53575;51.366;12.350;2022-11-20T07:41:24;32.58;;;16.27;;
66680;SDS011;53575;51.366;12.350;2022-11-20T07:43:49;32.67;;;16.17;;
66680;SDS011;53575;51.366;12.350;2022-11-20T07:46:15;39.25;;;16.50;;
66680;SDS011;53575;51.366;12.350;2022-11-20T07:48:40;36.63;;;15.45;;
66680;SDS011;53575;51.366;12.350;2022-11-20T07:51:06;39.20;;;17.27;;
66680;SDS011;53575;51.366;12.350;2022-11-20T07:53:31;33.03;;;16.23;;
66680;SDS011;53575;51.366;12.350;2022-11-20T07:56:00;36.78;;;17.15;;
66680;SDS011;53575;51.366;12.350;2022-11-20T07:58:26;35.83;;;16.75;;
66680;SDS011;53575;51.366;12.350;2022-11-20T08:00:54;36.88;;;17.17;;
66680;SDS011;53575;51.366;12.350;2022-11-20T08:03:19;36.72;;;16.45;;
66680;SDS011;53575;51.366;12.350;2022-11-20T08:05:45;33.58;;;17.50;;
66680;SDS011;53575;51.366;12.350;2022-11-20T08:08:10;32.97;;;15.95;;
66680;SDS011;53575;51.366;12.350;2022-11-20T08:10:36;37.72;;;16.70;;
66680;SDS011;53575;51.366;12.350;2022-11-20T08:13:01;35.42;;;18.40;;
66680;SDS011;53575;51.366;12.350;2022-11-20T08:15:49;35.33;;;15.90;;
66680;SDS011;53575;51.366;12.350;2022-11-20T08:18:15;33.00;;;15.68;;
66680;SDS011;53575;51.366;12.350;2022-11-20T08:20:42;34.65;;;16.30;;
66680;SDS011;53575;51.366;12.350;2022-11-20T08:23:08;37.90;;;17.63;;
66680;SDS011;53575;51.366;12.350;2022-11-20T08:25:34;38.03;;;15.75;;
66680;SDS011;53575;51.366;12.350;2022-11-20T08:28:01;36.05;;;16.73;;
66680;SDS011;53575;51.366;12.350;2022-11-20T08:30:30;38.25;;;16.63;;
66680;SDS011;53575;51.366;12.350;2022-11-20T08:33:00;34.17;;;16.63;;
66680;SDS011;53575;51.366;12.350;2022-11-20T08:35:26;33.38;;;16.27;;
66680;SDS011;53575;51.366;12.350;2022-11-20T08:37:52;33.67;;;16.38;;
66680;SDS011;53575;51.366;12.350;2022-11-20T08:40:17;32.13;;;15.07;;
66680;SDS011;53575;51.366;12.350;2022-11-20T08:42:46;32.25;;;15.35;;
66680;SDS011;53575;51.366;12.350;2022-11-20T08:45:13;34.08;;;15.82;;
66680;SDS011;53575;51.366;12.350;2022-11-20T08:47:39;36.88;;;16.13;;
66680;SDS011;53575;51.366;12.350;2022-11-20T08:50:06;35.42;;;15.88;;
66680;SDS011;53575;51.366;12.350;2022-11-20T08:52:31;29.85;;;15.02;;
66680;SDS011;53575;51.366;12.350;2022-11-20T08:54:57;32.47;;;15.85;;
66680;SDS011;53575;51.366;12.350;2022-11-20T08:57:22;26.85;;;14.40;;
66680;SDS011;53575;51.366;12.350;2022-11-20T08:59:48;32.47;;;14.77;;
66680;SDS011;53575;51.366;12.350;2022-11-20T09:02:14;27.77;;;15.55;;
66680;SDS011;53575;51.366;12.350;2022-11-20T09:04:39;29.85;;;15.15;;
66680;SDS011;53575;51.366;12.350;2022-11-20T09:07:04;29.38;;;15.35;;
66680;SDS011;53575;51.366;12.350;2022-11-20T09:09:30;33.17;;;15.05;;
66680;SDS011;53575;51.366;12.350;2022-11-20T09:11:55;29.55;;;14.10;;
66680;SDS011;53575;51.366;12.350;2022-11-20T09:14:21;29.10;;;14.85;;
66680;SDS011;53575;51.366;12.350;2022-11-20T09:16:49;31.33;;;13.37;;
66680;SDS011;53575;51.366;12.350;2022-11-20T09:19:15;34.22;;;16.13;;
66680;SDS011;53575;51.366;12.350;2022-11-20T09:21:40;30.35;;;15.85;;
66680;SDS011;53575;51.366;12.350;2022-11-20T09:24:06;29.05;;;15.93;;
66680;SDS011;53575;51.366;12.350;2022-11-20T09:26:32;28.20;;;13.82;;
66680;SDS011;53575;51.366;12.350;2022-11-20T09:28:57;34.17;;;16.40;;
66680;SDS011;53575;51.366;12.350;2022-11-20T09:31:23;28.92;;;14.23;;
66680;SDS011;53575;51.366;12.350;2022-11-20T09:33:50;30.50;;;15.57;;
66680;SDS011;53575;51.366;12.350;2022-11-20T09:36:16;29.33;;;13.50;;
66680;SDS011;53575;51.366;12.350;2022-11-20T09:38:43;34.08;;;15.95;;
66680;SDS011;53575;51.366;12.350;2022-11-20T09:41:18;31.33;;;15.30;;
66680;SDS011;53575;51.366;12.350;2022-11-20T09:47:00;29.48;;;15.27;;
66680;SDS011;53575;51.366;12.350;2022-11-20T09:52:28;25.90;;;13.82;;
66680;SDS011;53575;51.366;12.350;2022-11-20T09:55:08;30.10;;;15.43;;
66680;SDS011;53575;51.366;12.350;2022-11-20T09:57:37;30.92;;;15.85;;
66680;SDS011;53575;51.366;12.350;2022-11-20T10:00:08;27.80;;;14.70;;
66680;SDS011;53575;51.366;12.350;2022-11-20T10:02:38;33.20;;;15.15;;
66680;SDS011;53575;51.366;12.350;2022-11-20T10:05:21;28.10;;;14.07;;
66680;SDS011;53575;51.366;12.350;2022-11-20T10:11:13;36.95;;;18.33;;
66680;SDS011;53575;51.366;12.350;2022-11-20T10:30:25;41.97;;;19.73;;
66680;SDS011;53575;51.366;12.350;2022-11-20T10:32:52;40.25;;;19.38;;
66680;SDS011;53575;51.366;12.350;2022-11-20T10:37:51;34.47;;;17.90;;
66680;SDS011;53575;51.366;12.350;2022-11-20T10:40:42;35.70;;;17.45;;
66680;SDS011;53575;51.366;12.350;2022-11-20T10:45:49;34.85;;;15.90;;
66680;SDS011;53575;51.366;12.350;2022-11-20T10:48:20;30.02;;;16.15;;
66680;SDS011;53575;51.366;12.350;2022-11-20T10:53:42;30.17;;;13.65;;
66680;SDS011;53575;51.366;12.350;2022-11-20T10:56:11;28.27;;;11.85;;
66680;SDS011;53575;51.366;12.350;2022-11-20T11:01:14;27.60;;;15.07;;
66680;SDS011;53575;51.366;12.350;2022-11-20T11:03:41;26.45;;;14.30;;
66680;SDS011;53575;51.366;12.350;2022-11-20T11:06:12;28.90;;;15.05;;
66680;SDS011;53575;51.366;12.350;2022-11-20T11:08:51;25.50;;;12.73;;
66680;SDS011;53575;51.366;12.350;2022-11-20T11:14:03;23.92;;;12.73;;
66680;SDS011;53575;51.366;12.350;2022-11-20T11:16:53;23.55;;;12.20;;
66680;SDS011;53575;51.366;12.350;2022-11-20T11:19:21;19.55;;;10.40;;
66680;SDS011;53575;51.366;12.350;2022-11-20T11:21:47;19.95;;;10.65;;
66680;SDS011;53575;51.366;12.350;2022-11-20T11:26:57;16.95;;;9.10;;
66680;SDS011;53575;51.366;12.350;2022-11-20T11:29:24;18.75;;;9.98;;
66680;SDS011;53575;51.366;12.350;2022-11-20T11:32:07;20.27;;;10.80;;
66680;SDS011;53575;51.366;12.350;2022-11-20T11:34:40;18.95;;;10.32;;
66680;SDS011;53575;51.366;12.350;2022-11-20T11:37:11;18.75;;;10.20;;
66680;SDS011;53575;51.366;12.350;2022-11-20T11:39:42;18.23;;;9.00;;
66680;SDS011;53575;51.366;12.350;2022-11-20T11:42:16;14.40;;;8.17;;
66680;SDS011;53575;51.366;12.350;2022-11-20T11:44:44;18.10;;;9.25;;
66680;SDS011;53575;51.366;12.350;2022-11-20T11:47:37;16.98;;;8.77;;
66680;SDS011;53575;51.366;12.350;2022-11-20T12:04:05;18.90;;;10.05;;
66680;SDS011;53575;51.366;12.350;2022-11-20T12:06:47;17.55;;;10.18;;
66680;SDS011;53575;51.366;12.350;2022-11-20T12:09:20;17.35;;;9.27;;
66680;SDS011;53575;51.366;12.350;2022-11-20T12:11:55;18.05;;;9.65;;
66680;SDS011;53575;51.366;12.350;2022-11-20T12:14:38;17.33;;;10.35;;
66680;SDS011;53575;51.366;12.350;2022-11-20T12:17:08;17.48;;;10.38;;
66680;SDS011;53575;51.366;12.350;2022-11-20T12:19:37;20.88;;;10.48;;
66680;SDS011;53575;51.366;12.350;2022-11-20T12:30:14;18.13;;;9.73;;
66680;SDS011;53575;51.366;12.350;2022-11-20T12:44:20;19.10;;;9.88;;
66680;SDS011;53575;51.366;12.350;2022-11-20T12:52:53;17.58;;;9.13;;
66680;SDS011;53575;51.366;12.350;2022-11-20T12:55:47;15.20;;;9.18;;
66680;SDS011;53575;51.366;12.350;2022-11-20T12:58:29;17.80;;;9.23;;
66680;SDS011;53575;51.366;12.350;2022-11-20T13:01:21;16.38;;;9.13;;
66680;SDS011;53575;51.366;12.350;2022-11-20T13:06:52;16.48;;;8.75;;
66680;SDS011;53575;51.366;12.350;2022-11-20T13:09:19;18.08;;;9.85;;
66680;SDS011;53575;51.366;12.350;2022-11-20T13:11:50;18.33;;;9.13;;
66680;SDS011;53575;51.366;12.350;2022-11-20T13:17:08;19.50;;;10.15;;
66680;SDS011;53575;51.366;12.350;2022-11-20T13:19:39;18.58;;;9.13;;
66680;SDS011;53575;51.366;12.350;2022-11-20T13:22:07;16.00;;;9.30;;
66680;SDS011;53575;51.366;12.350;2022-11-20T13:24:34;17.17;;;9.07;;
66680;SDS011;53575;51.366;12.350;2022-11-20T13:29:37;17.17;;;9.55;;
66680;SDS011;53575;51.366;12.350;2022-11-20T13:32:17;22.63;;;10.85;;
66680;SDS011;53575;51.366;12.350;2022-11-20T13:37:27;17.30;;;9.48;;
66680;SDS011;53575;51.366;12.350;2022-11-20T13:47:50;15.30;;;8.57;;
66680;SDS011;53575;51.366;12.350;2022-11-20T13:50:16;15.73;;;7.68;;
66680;SDS011;53575;51.366;12.350;2022-11-20T14:00:50;15.60;;;8.25;;
66680;SDS011;53575;51.366;12.350;2022-11-20T14:03:25;15.98;;;8.27;;
66680;SDS011;53575;51.366;12.350;2022-11-20T14:06:02;14.80;;;8.13;;
66680;SDS011;53575;51.366;12.350;2022-11-20T14:11:26;13.95;;;7.32;;
66680;SDS011;53575;51.366;12.350;2022-11-20T14:16:21;15.43;;;7.32;;
66680;SDS011;53575;51.366;12.350;2022-11-20T14:18:48;12.52;;;7.15;;
66680;SDS011;53575;51.366;12.350;2022-11-20T14:21:28;13.77;;;7.30;;
66680;SDS011;53575;51.366;12.350;2022-11-20T14:24:09;11.65;;;6.97;;
66680;SDS011;53575;51.366;12.350;2022-11-20T14:26:36;14.13;;;6.90;;
66680;SDS011;53575;51.366;12.350;2022-11-20T14:29:11;14.20;;;7.78;;
66680;SDS011;53575;51.366;12.350;2022-11-20T14:31:38;12.95;;;7.18;;
66680;SDS011;53575;51.366;12.350;2022-11-20T14:34:04;13.35;;;7.25;;
66680;SDS011;53575;51.366;12.350;2022-11-20T14:36:29;13.48;;;7.43;;
66680;SDS011;53575;51.366;12.350;2022-11-20T14:38:55;13.45;;;7.28;;
66680;SDS011;53575;51.366;12.350;2022-11-20T14:41:21;14.13;;;8.07;;
66680;SDS011;53575;51.366;12.350;2022-11-20T14:43:50;15.85;;;8.45;;
66680;SDS011;53575;51.366;12.350;2022-11-20T14:46:24;14.40;;;7.63;;
66680;SDS011;53575;51.366;12.350;2022-11-20T14:48:54;14.98;;;7.63;;
66680;SDS011;53575;51.366;12.350;2022-11-20T14:51:32;16.98;;;8.52;;
66680;SDS011;53575;51.366;12.350;2022-11-20T14:54:13;20.63;;;8.75;;
66680;SDS011;53575;51.366;12.350;2022-11-20T14:56:41;18.75;;;8.70;;
66680;SDS011;53575;51.366;12.350;2022-11-20T14:59:07;17.80;;;9.02;;
66680;SDS011;53575;51.366;12.350;2022-11-20T15:01:33;17.98;;;8.57;;
66680;SDS011;53575;51.366;12.350;2022-11-20T15:04:11;16.00;;;8.18;;
66680;SDS011;53575;51.366;12.350;2022-11-20T15:06:37;17.25;;;9.07;;
66680;SDS011;53575;51.366;12.350;2022-11-20T15:09:14;18.33;;;9.45;;
66680;SDS011;53575;51.366;12.350;2022-11-20T15:11:40;18.20;;;9.57;;
66680;SDS011;53575;51.366;12.350;2022-11-20T15:14:21;19.67;;;8.68;;
66680;SDS011;53575;51.366;12.350;2022-11-20T15:16:48;16.60;;;9.60;;
66680;SDS011;53575;51.366;12.350;2022-11-20T15:19:22;17.75;;;8.98;;
66680;SDS011;53575;51.366;12.350;2022-11-20T15:21:48;18.30;;;9.90;;
66680;SDS011;53575;51.366;12.350;2022-11-20T15:24:14;18.15;;;9.63;;
66680;SDS011;53575;51.366;12.350;2022-11-20T15:26:40;18.63;;;9.77;;
66680;SDS011;53575;51.366;12.350;2022-11-20T15:29:09;19.67;;;10.93;;
66680;SDS011;53575;51.366;12.350;2022-11-20T15:31:36;16.45;;;9.10;;
66680;SDS011;53575;51.366;12.350;2022-11-20T15:34:08;22.05;;;10.65;;
66680;SDS011;53575;51.366;12.350;2022-11-20T15:36:37;20.80;;;9.93;;
66680;SDS011;53575;51.366;12.350;2022-11-20T15:39:02;19.98;;;10.70;;
66680;SDS011;53575;51.366;12.350;2022-11-20T15:41:27;18.52;;;9.95;;
66680;SDS011;53575;51.366;12.350;2022-11-20T15:43:53;21.13;;;10.48;;
66680;SDS011;53575;51.366;12.350;2022-11-20T15:46:21;19.15;;;10.85;;
66680;SDS011;53575;51.366;12.350;2022-11-20T15:48:53;21.05;;;10.48;;
66680;SDS011;53575;51.366;12.350;2022-11-20T15:53:53;19.10;;;9.40;;
66680;SDS011;53575;51.366;12.350;2022-11-20T15:56:19;18.30;;;10.15;;
66680;SDS011;53575;51.366;12.350;2022-11-20T15:58:45;23.13;;;10.57;;
66680;SDS011;53575;51.366;12.350;2022-11-20T16:01:11;17.98;;;10.15;;
66680;SDS011;53575;51.366;12.350;2022-11-20T16:03:38;19.25;;;10.98;;
66680;SDS011;53575;51.366;12.350;2022-11-20T16:06:04;23.20;;;11.40;;
66680;SDS011;53575;51.366;12.350;2022-11-20T16:08:29;22.27;;;11.23;;
66680;SDS011;53575;51.366;12.350;2022-11-20T16:10:55;17.00;;;9.32;;
66680;SDS011;53575;51.366;12.350;2022-11-20T16:13:20;22.08;;;10.15;;
66680;SDS011;53575;51.366;12.350;2022-11-20T16:16:05;20.05;;;10.07;;